Time;durP1;ratioP1;P1;durP2;ratioP2;P2;SDS_P1;SDS_P2;PMS_P1;PMS_P2;Temp;Humidity;BMP_temperature;BMP_pressure;BME280_temperature;BME280_humidity;BME280_pressure;Samples;Min_cycle;Max_cycle;Signal;HPM_P1;HPM_P2
2023/04/13 00:00:15;;;;;;;13.20;8.10;;;16.70;49.70;;;;;;5105594;28;20469;-80
2023/04/13 00:02:44;;;;;;;15.70;8.70;;;16.70;49.70;;;;;;5098014;28;20436;-83
2023/04/13 00:05:12;;;;;;;14.10;7.70;;;16.60;49.60;;;;;;5100969;28;20459;-82
2023/04/13 00:07:42;;;;;;;13.80;8.17;;;16.60;49.70;;;;;;5099120;28;20465;-82
2023/04/13 00:10:10;;;;;;;14.10;8.43;;;16.60;49.70;;;;;;5099090;28;20476;-84
2023/04/13 00:12:39;;;;;;;12.33;8.20;;;16.60;49.70;;;;;;5098772;28;20437;-83
2023/04/13 00:15:10;;;;;;;11.43;8.13;;;16.70;49.90;;;;;;5098721;28;20474;-81
2023/04/13 00:17:38;;;;;;;10.97;7.63;;;16.60;49.80;;;;;;5097054;28;20512;-81
2023/04/13 00:20:10;;;;;;;11.40;8.13;;;16.60;49.70;;;;;;5089496;28;20479;-81
2023/04/13 00:22:39;;;;;;;13.40;8.53;;;16.60;49.50;;;;;;5096760;28;20455;-81
2023/04/13 00:25:07;;;;;;;14.20;8.50;;;16.60;49.60;;;;;;5092896;28;20532;-82
2023/04/13 00:27:37;;;;;;;11.80;7.77;;;16.60;49.80;;;;;;5096390;28;20471;-82
2023/04/13 00:30:07;;;;;;;11.93;7.20;;;16.60;49.70;;;;;;5095563;28;20474;-82
2023/04/13 00:32:37;;;;;;;14.43;8.73;;;16.60;49.80;;;;;;5088860;28;20437;-81
2023/04/13 00:35:06;;;;;;;13.43;8.67;;;16.60;49.70;;;;;;5093408;28;20490;-81
2023/04/13 00:37:34;;;;;;;12.37;7.27;;;16.50;49.60;;;;;;5095781;28;20471;-81
2023/04/13 00:40:04;;;;;;;9.43;7.43;;;16.50;49.50;;;;;;5096324;28;20460;-82
2023/04/13 00:42:32;;;;;;;13.50;6.87;;;16.50;49.50;;;;;;5097568;28;20460;-81
2023/04/13 00:45:00;;;;;;;11.27;6.80;;;16.50;49.60;;;;;;5093974;28;20429;-81
2023/04/13 00:47:29;;;;;;;11.23;6.87;;;16.50;49.60;;;;;;5097240;28;20444;-81
2023/04/13 00:49:59;;;;;;;10.17;6.57;;;16.50;49.40;;;;;;5084153;28;20461;-82
2023/04/13 00:52:27;;;;;;;13.30;6.73;;;16.50;49.50;;;;;;5095503;28;20479;-82
2023/04/13 00:54:56;;;;;;;9.00;6.43;;;16.50;49.50;;;;;;5097059;28;20791;-82
2023/04/13 00:57:26;;;;;;;10.73;6.20;;;16.50;49.50;;;;;;5087811;28;20449;-81
2023/04/13 00:59:53;;;;;;;8.77;6.40;;;16.50;49.60;;;;;;5094209;28;20471;-83
2023/04/13 01:02:25;;;;;;;9.10;6.27;;;16.40;49.40;;;;;;5095121;28;20441;-80
2023/04/13 01:04:53;;;;;;;8.17;6.10;;;16.40;49.30;;;;;;5099894;28;20445;-81
2023/04/13 01:07:26;;;;;;;11.97;6.60;;;16.40;49.60;;;;;;5096059;28;20456;-82
2023/04/13 01:10:07;;;;;;;10.53;6.90;;;16.40;49.40;;;;;;5093466;28;20473;-83
2023/04/13 01:12:39;;;;;;;11.80;6.20;;;16.40;49.50;;;;;;5094528;28;20504;-82
2023/04/13 01:15:10;;;;;;;9.73;6.13;;;16.40;49.40;;;;;;5085084;28;20453;-82
2023/04/13 01:17:38;;;;;;;9.07;6.37;;;16.40;49.50;;;;;;5094417;28;20467;-82
2023/04/13 01:20:09;;;;;;;7.93;6.10;;;16.40;49.60;;;;;;5097704;28;20495;-82
2023/04/13 01:22:41;;;;;;;6.20;5.13;;;16.30;49.50;;;;;;5098451;28;20436;-81
2023/04/13 01:25:27;;;;;;;6.40;5.10;;;16.30;49.60;;;;;;5091184;28;20456;-82
2023/04/13 01:27:58;;;;;;;9.23;5.37;;;16.30;49.40;;;;;;5093339;28;20451;-81
2023/04/13 01:30:27;;;;;;;9.30;5.07;;;16.30;49.40;;;;;;5094851;28;20479;-81
2023/04/13 01:32:55;;;;;;;8.70;5.43;;;16.30;49.60;;;;;;5102555;28;20449;-80
2023/04/13 01:35:24;;;;;;;6.13;5.23;;;16.30;49.50;;;;;;5099286;28;20437;-82
2023/04/13 01:37:52;;;;;;;8.00;5.50;;;16.30;49.50;;;;;;5090885;28;20539;-79
2023/04/13 01:40:21;;;;;;;6.87;5.30;;;16.20;49.40;;;;;;5095037;28;20464;-81
2023/04/13 01:42:49;;;;;;;8.80;5.60;;;16.20;49.60;;;;;;5095524;28;20429;-81
2023/04/13 01:45:20;;;;;;;8.73;5.30;;;16.30;49.60;;;;;;5094507;28;20447;-83
2023/04/13 01:47:51;;;;;;;6.03;5.00;;;16.20;49.40;;;;;;5093531;28;20514;-82
2023/04/13 01:50:24;;;;;;;6.33;4.63;;;16.20;49.50;;;;;;5097204;28;20473;-81
2023/04/13 01:52:53;;;;;;;7.07;4.50;;;16.20;49.60;;;;;;5095164;28;20460;-80
2023/04/13 01:55:22;;;;;;;6.40;4.97;;;16.20;49.60;;;;;;5089401;28;20445;-81
2023/04/13 01:57:50;;;;;;;7.13;5.00;;;16.20;49.40;;;;;;5093687;28;20455;-80
2023/04/13 02:00:20;;;;;;;8.90;5.03;;;16.20;49.60;;;;;;5096317;28;20477;-81
2023/04/13 02:02:48;;;;;;;7.53;5.17;;;16.20;49.50;;;;;;5100502;28;20444;-82
2023/04/13 02:05:16;;;;;;;6.80;5.10;;;16.20;49.50;;;;;;5088505;28;20459;-83
2023/04/13 02:07:45;;;;;;;6.83;5.20;;;16.20;49.60;;;;;;5095368;28;20452;-79
2023/04/13 02:10:15;;;;;;;6.90;4.70;;;16.20;49.50;;;;;;5086074;28;20473;-82
2023/04/13 02:12:43;;;;;;;4.47;4.07;;;16.20;49.50;;;;;;5092261;28;20976;-81
2023/04/13 02:15:11;;;;;;;5.70;4.37;;;16.20;49.60;;;;;;5096070;28;20456;-82
2023/04/13 02:17:41;;;;;;;7.10;4.77;;;16.10;49.50;;;;;;5085914;28;20449;-80
2023/04/13 02:20:11;;;;;;;7.97;4.40;;;16.10;49.40;;;;;;5092517;28;20460;-80
2023/04/13 02:22:40;;;;;;;5.13;4.50;;;16.10;49.60;;;;;;5090423;28;20451;-81
2023/04/13 02:25:10;;;;;;;7.47;4.70;;;16.10;49.50;;;;;;5095222;28;20441;-81
2023/04/13 02:27:38;;;;;;;6.53;4.70;;;16.20;49.50;;;;;;5091043;28;20580;-80
2023/04/13 02:30:08;;;;;;;6.07;4.40;;;16.10;49.50;;;;;;5090234;28;20484;-79
2023/04/13 02:32:37;;;;;;;5.77;4.00;;;16.10;49.40;;;;;;5100439;28;20492;-80
2023/04/13 02:35:08;;;;;;;10.50;4.53;;;16.20;49.50;;;;;;5099635;28;20471;-80
2023/04/13 02:37:38;;;;;;;5.40;4.63;;;16.20;49.40;;;;;;5091887;28;20475;-80
2023/04/13 02:40:08;;;;;;;6.67;4.60;;;16.10;49.30;;;;;;5098072;28;20472;-80
2023/04/13 02:42:37;;;;;;;5.07;4.17;;;16.10;49.30;;;;;;5096550;28;20536;-80
2023/04/13 02:45:06;;;;;;;6.27;4.63;;;16.10;49.30;;;;;;5086855;28;20460;-81
2023/04/13 02:47:35;;;;;;;6.23;3.90;;;16.10;49.30;;;;;;5092584;28;20453;-81
2023/04/13 02:50:03;;;;;;;5.40;4.17;;;16.10;49.30;;;;;;5086003;28;20533;-81
2023/04/13 02:52:32;;;;;;;4.20;3.70;;;16.10;49.40;;;;;;5094372;28;20445;-81
2023/04/13 02:55:00;;;;;;;5.30;3.77;;;16.10;49.40;;;;;;5094587;28;20467;-81
2023/04/13 02:57:29;;;;;;;6.63;4.47;;;16.10;49.30;;;;;;5089286;28;20498;-80
2023/04/13 02:59:57;;;;;;;4.37;3.60;;;16.10;49.30;;;;;;5100680;28;20469;-81
2023/04/13 03:02:28;;;;;;;5.00;4.03;;;16.10;49.20;;;;;;5092436;28;20460;-82
2023/04/13 03:04:58;;;;;;;4.60;4.00;;;16.10;49.20;;;;;;5095124;28;20502;-81
2023/04/13 03:07:26;;;;;;;5.30;4.47;;;16.10;49.10;;;;;;5094941;28;20448;-81
2023/04/13 03:09:55;;;;;;;4.53;4.13;;;16.10;49.00;;;;;;5092260;28;20499;-81
2023/04/13 03:12:25;;;;;;;4.70;3.67;;;16.10;49.20;;;;;;5085242;28;20472;-82
2023/04/13 03:14:53;;;;;;;4.03;3.63;;;16.10;49.20;;;;;;5098147;28;20440;-80
2023/04/13 03:17:21;;;;;;;4.13;3.50;;;16.10;49.10;;;;;;5094240;28;20452;-79
2023/04/13 03:19:50;;;;;;;5.00;3.67;;;16.10;49.20;;;;;;5082419;28;20461;-82
2023/04/13 03:22:19;;;;;;;4.80;3.70;;;16.10;49.20;;;;;;5086264;28;20447;-80
2023/04/13 03:24:47;;;;;;;4.13;3.67;;;16.10;49.00;;;;;;5091696;28;20452;-81
2023/04/13 03:27:21;;;;;;;3.83;3.53;;;16.10;49.10;;;;;;5081797;28;20453;-80
2023/04/13 03:29:53;;;;;;;5.77;4.10;;;16.10;49.00;;;;;;5090895;28;20499;-81
2023/04/13 03:32:21;;;;;;;4.97;4.00;;;16.10;49.00;;;;;;5095498;28;20452;-82
2023/04/13 03:34:50;;;;;;;4.67;3.53;;;16.10;49.00;;;;;;5100591;28;20445;-81
2023/04/13 03:37:18;;;;;;;3.83;3.53;;;16.10;49.00;;;;;;5098662;28;20447;-81
2023/04/13 03:39:46;;;;;;;3.60;3.30;;;16.10;49.10;;;;;;5095823;28;20479;-81
2023/04/13 03:42:14;;;;;;;4.40;3.53;;;16.00;48.90;;;;;;5099088;28;20441;-82
2023/04/13 03:44:44;;;;;;;6.53;3.67;;;16.10;49.00;;;;;;5092478;28;20544;-81
2023/04/13 03:47:13;;;;;;;4.97;3.70;;;16.10;49.00;;;;;;5098989;28;20457;-80
2023/04/13 03:49:52;;;;;;;7.40;3.97;;;16.00;48.90;;;;;;5087966;28;20475;-83
2023/04/13 03:52:21;;;;;;;6.47;3.70;;;16.00;49.00;;;;;;5088900;28;20449;-83
2023/04/13 03:54:49;;;;;;;5.47;3.60;;;16.00;49.00;;;;;;5096094;28;20452;-82
2023/04/13 03:57:17;;;;;;;4.90;3.37;;;16.00;48.90;;;;;;5097201;28;20456;-82
2023/04/13 03:59:50;;;;;;;3.70;3.07;;;16.00;49.10;;;;;;5099297;28;20499;-81
2023/04/13 04:02:18;;;;;;;3.77;3.37;;;16.10;49.00;;;;;;5092198;28;20498;-82
2023/04/13 04:04:46;;;;;;;6.70;3.50;;;16.00;48.90;;;;;;5102702;28;20492;-83
2023/04/13 04:07:18;;;;;;;3.93;3.17;;;16.00;49.00;;;;;;5088940;28;20457;-82
2023/04/13 04:09:46;;;;;;;4.00;3.60;;;16.00;48.90;;;;;;5099499;28;20567;-82
2023/04/13 04:12:17;;;;;;;6.20;3.60;;;16.00;48.90;;;;;;5098251;28;20515;-82
2023/04/13 04:14:52;;;;;;;3.33;3.03;;;16.00;49.00;;;;;;5097573;28;20454;-84
2023/04/13 04:17:21;;;;;;;3.80;3.33;;;16.00;48.90;;;;;;5098559;28;20467;-82
2023/04/13 04:19:49;;;;;;;3.40;3.10;;;16.00;49.00;;;;;;5098135;28;20556;-82
2023/04/13 04:22:19;;;;;;;3.80;3.40;;;16.00;48.90;;;;;;5095009;28;20449;-81
2023/04/13 04:24:51;;;;;;;4.13;3.20;;;16.00;49.00;;;;;;5100405;28;20539;-81
2023/04/13 04:27:20;;;;;;;3.00;2.77;;;16.00;49.00;;;;;;5091645;28;20452;-82
2023/04/13 04:29:57;;;;;;;3.10;2.90;;;16.00;48.80;;;;;;5096897;28;20528;-82
2023/04/13 04:32:28;;;;;;;3.60;3.30;;;16.00;49.00;;;;;;5091357;28;20451;-81
2023/04/13 04:35:06;;;;;;;3.20;3.00;;;16.00;49.00;;;;;;5090152;28;20437;-82
2023/04/13 04:37:36;;;;;;;2.93;2.70;;;15.90;48.90;;;;;;5088756;28;20495;-82
2023/04/13 04:40:08;;;;;;;3.87;2.77;;;16.00;49.00;;;;;;5092415;28;20476;-82
2023/04/13 04:42:37;;;;;;;4.50;2.47;;;16.00;49.00;;;;;;5098287;28;20516;-81
2023/04/13 04:45:09;;;;;;;3.93;3.07;;;16.00;49.00;;;;;;5097270;28;20528;-81
2023/04/13 04:47:42;;;;;;;2.70;2.50;;;16.00;49.00;;;;;;5098322;28;20528;-82
2023/04/13 04:50:16;;;;;;;2.87;2.57;;;16.00;48.90;;;;;;5096168;28;20504;-82
2023/04/13 04:52:47;;;;;;;3.30;2.50;;;16.00;49.00;;;;;;5097613;28;20453;-82
2023/04/13 04:55:16;;;;;;;2.60;2.27;;;16.00;49.00;;;;;;5097829;28;20520;-82
2023/04/13 04:57:46;;;;;;;3.30;2.67;;;16.00;48.90;;;;;;5093939;28;20524;-81
2023/04/13 05:00:19;;;;;;;2.83;2.50;;;16.00;49.00;;;;;;5096597;28;20503;-81
2023/04/13 05:02:49;;;;;;;6.73;2.10;;;16.00;49.00;;;;;;5097295;28;20460;-82
2023/04/13 05:05:19;;;;;;;2.60;2.40;;;16.00;49.00;;;;;;5090386;28;20494;-82
2023/04/13 05:07:51;;;;;;;2.93;2.70;;;16.00;49.00;;;;;;5097632;28;20480;-82
2023/04/13 05:10:19;;;;;;;3.53;1.80;;;16.00;48.90;;;;;;5087094;28;20473;-79
2023/04/13 05:12:51;;;;;;;2.00;1.80;;;16.00;49.00;;;;;;5094318;28;20437;-81
2023/04/13 05:15:20;;;;;;;7.80;2.07;;;16.00;48.90;;;;;;5103428;28;20445;-83
2023/04/13 05:17:50;;;;;;;2.17;2.07;;;16.00;48.90;;;;;;5095552;28;20483;-81
2023/04/13 05:20:26;;;;;;;2.13;2.03;;;16.00;49.00;;;;;;5100925;28;20465;-82
2023/04/13 05:22:56;;;;;;;2.30;2.10;;;16.00;48.90;;;;;;5095309;28;20456;-81
2023/04/13 05:25:29;;;;;;;2.57;1.80;;;16.00;49.00;;;;;;5096479;28;20536;-82
2023/04/13 05:28:01;;;;;;;4.03;2.43;;;16.00;48.90;;;;;;5092429;28;20448;-82
2023/04/13 05:30:34;;;;;;;2.03;1.93;;;16.00;49.00;;;;;;5098803;28;20472;-82
2023/04/13 05:33:09;;;;;;;2.03;1.93;;;16.00;48.90;;;;;;5095400;28;20480;-81
2023/04/13 05:35:38;;;;;;;2.13;1.80;;;16.00;49.00;;;;;;5095230;28;20462;-83
2023/04/13 05:38:19;;;;;;;1.83;1.67;;;16.00;49.00;;;;;;5092511;28;20457;-81
2023/04/13 05:40:54;;;;;;;2.17;1.80;;;16.00;48.90;;;;;;5095136;28;20449;-81
2023/04/13 05:43:35;;;;;;;2.30;2.10;;;16.00;49.00;;;;;;5092421;28;20495;-80
2023/04/13 05:46:11;;;;;;;1.80;1.50;;;16.00;49.00;;;;;;5096439;28;20448;-82
2023/04/13 05:48:48;;;;;;;1.90;1.80;;;16.00;49.00;;;;;;5099913;28;20471;-82
2023/04/13 05:51:29;;;;;;;3.63;2.10;;;16.00;49.00;;;;;;5092829;28;20554;-81
2023/04/13 05:54:01;;;;;;;1.83;1.73;;;16.00;49.00;;;;;;5095362;28;20516;-82
2023/04/13 05:56:33;;;;;;;1.50;1.40;;;16.00;49.10;;;;;;5092834;28;20477;-82
2023/04/13 05:59:11;;;;;;;1.93;1.40;;;16.00;49.10;;;;;;5100362;28;20522;-82
2023/04/13 06:01:45;;;;;;;1.83;1.60;;;16.00;48.90;;;;;;5086134;28;20447;-80
2023/04/13 06:04:23;;;;;;;1.90;1.70;;;16.10;49.10;;;;;;5099205;28;20448;-81
2023/04/13 06:07:06;;;;;;;2.17;1.60;;;16.10;49.20;;;;;;5090177;28;20440;-81
2023/04/13 06:09:50;;;;;;;2.00;1.77;;;16.10;49.20;;;;;;5094963;28;20570;-81
2023/04/13 06:12:20;;;;;;;1.40;1.40;;;16.10;49.30;;;;;;5083212;28;20518;-80
2023/04/13 06:14:51;;;;;;;2.20;2.00;;;16.10;49.20;;;;;;5093473;28;20441;-81
2023/04/13 06:17:24;;;;;;;2.10;1.57;;;16.20;49.30;;;;;;5088771;28;20504;-83
2023/04/13 06:19:53;;;;;;;2.03;1.90;;;16.20;49.20;;;;;;5092278;28;20508;-81
2023/04/13 06:22:21;;;;;;;1.83;1.50;;;16.30;49.20;;;;;;5087304;28;20465;-82
2023/04/13 06:24:50;;;;;;;1.67;1.57;;;16.30;49.20;;;;;;5086707;28;20484;-81
2023/04/13 06:27:21;;;;;;;3.47;1.70;;;16.30;49.20;;;;;;5094458;28;20451;-82
2023/04/13 06:29:52;;;;;;;1.60;1.50;;;16.30;49.20;;;;;;5090293;28;20473;-81
2023/04/13 06:32:20;;;;;;;1.97;1.80;;;16.40;49.30;;;;;;5089328;28;20507;-82
2023/04/13 06:34:49;;;;;;;1.87;1.70;;;16.50;49.30;;;;;;5094823;28;20810;-82
2023/04/13 06:37:19;;;;;;;4.00;1.70;;;16.50;49.20;;;;;;5093459;28;20540;-82
2023/04/13 06:39:47;;;;;;;1.60;1.50;;;16.60;49.20;;;;;;5093365;28;20555;-82
2023/04/13 06:42:16;;;;;;;1.73;1.50;;;16.60;49.10;;;;;;5083227;28;20445;-80
2023/04/13 06:44:44;;;;;;;3.30;1.60;;;16.60;49.10;;;;;;5087772;28;20453;-81
2023/04/13 06:47:13;;;;;;;1.67;1.57;;;16.60;49.10;;;;;;5094536;28;20455;-82
2023/04/13 06:49:41;;;;;;;1.53;1.43;;;16.70;49.20;;;;;;5093793;28;20539;-80
2023/04/13 06:52:11;;;;;;;1.93;1.80;;;16.70;49.20;;;;;;5083472;28;20504;-81
2023/04/13 06:54:39;;;;;;;1.70;1.60;;;16.80;49.20;;;;;;5089769;28;20528;-81
2023/04/13 06:57:18;;;;;;;2.00;1.70;;;16.80;49.00;;;;;;5089383;28;20459;-80
2023/04/13 06:59:49;;;;;;;1.60;1.50;;;16.90;49.10;;;;;;5087200;28;20479;-81
2023/04/13 07:02:17;;;;;;;1.70;1.60;;;17.00;49.30;;;;;;5092821;28;20451;-81
2023/04/13 07:04:45;;;;;;;1.77;1.63;;;17.10;49.10;;;;;;5096595;28;20514;-81
2023/04/13 07:07:15;;;;;;;3.03;1.63;;;17.10;49.10;;;;;;5094192;28;20456;-82
2023/04/13 07:09:43;;;;;;;1.50;1.40;;;17.20;49.00;;;;;;5090520;28;20516;-80
2023/04/13 07:12:11;;;;;;;1.30;1.20;;;17.20;48.90;;;;;;5090945;28;20468;-80
2023/04/13 07:14:40;;;;;;;2.00;1.90;;;17.30;49.00;;;;;;5088545;28;20459;-82
2023/04/13 07:17:08;;;;;;;1.73;1.43;;;17.30;49.10;;;;;;5090104;28;20461;-81
2023/04/13 07:19:43;;;;;;;2.03;1.37;;;17.40;48.90;;;;;;5093375;28;20468;-81
2023/04/13 07:22:11;;;;;;;1.53;1.43;;;17.40;49.00;;;;;;5101964;28;20426;-81
2023/04/13 07:24:40;;;;;;;1.90;1.57;;;17.50;49.00;;;;;;5093890;28;20552;-82
2023/04/13 07:27:08;;;;;;;1.43;1.33;;;17.50;49.10;;;;;;5090331;28;20456;-82
2023/04/13 07:29:36;;;;;;;1.63;1.53;;;17.50;49.20;;;;;;5081045;28;20473;-83
2023/04/13 07:32:05;;;;;;;1.70;1.60;;;17.60;49.30;;;;;;5091905;28;20543;-80
2023/04/13 07:34:33;;;;;;;1.50;1.40;;;17.70;49.30;;;;;;5089657;28;20447;-80
2023/04/13 07:37:01;;;;;;;1.57;1.47;;;17.70;49.40;;;;;;5091521;28;20540;-80
2023/04/13 07:39:29;;;;;;;1.97;1.60;;;17.80;49.40;;;;;;5088070;28;20473;-81
2023/04/13 07:42:00;;;;;;;2.60;1.70;;;17.80;49.30;;;;;;5089113;28;20437;-80
2023/04/13 07:44:28;;;;;;;4.07;1.50;;;17.90;49.40;;;;;;5091135;28;20495;-80
2023/04/13 07:46:56;;;;;;;1.50;1.40;;;18.00;49.60;;;;;;5092147;28;20443;-80
2023/04/13 07:49:24;;;;;;;1.70;1.50;;;18.00;49.50;;;;;;5090461;28;20468;-81
2023/04/13 07:51:52;;;;;;;2.27;1.50;;;18.10;49.50;;;;;;5083775;28;20529;-80
2023/04/13 07:54:21;;;;;;;2.33;1.70;;;18.10;49.50;;;;;;5087500;28;20455;-80
2023/04/13 07:56:49;;;;;;;1.47;1.37;;;18.30;49.60;;;;;;5088856;28;20445;-79
2023/04/13 07:59:18;;;;;;;1.70;1.60;;;18.30;49.40;;;;;;5089054;28;21008;-83
2023/04/13 08:01:46;;;;;;;4.87;3.90;;;18.40;49.70;;;;;;5094337;28;20936;-82
2023/04/13 08:04:14;;;;;;;7.97;4.87;;;16.70;50.10;;;;;;5093338;28;20456;-79
2023/04/13 08:06:42;;;;;;;11.90;5.13;;;14.70;53.70;;;;;;5093184;28;20498;-80
2023/04/13 08:09:10;;;;;;;7.57;4.97;;;13.20;55.90;;;;;;5091765;28;20473;-80
2023/04/13 08:11:38;;;;;;;6.87;5.20;;;13.00;58.20;;;;;;5091961;28;20459;-80
2023/04/13 08:14:08;;;;;;;16.00;4.10;;;13.00;58.70;;;;;;5092932;28;20464;-76
2023/04/13 08:16:37;;;;;;;4.67;2.50;;;13.80;61.60;;;;;;5087702;28;20429;-77
2023/04/13 08:19:06;;;;;;;3.37;2.70;;;15.20;61.40;;;;;;5086265;28;20468;-78
2023/04/13 08:21:36;;;;;;;12.40;2.17;;;16.30;58.00;;;;;;5089426;28;20459;-78
2023/04/13 08:24:05;;;;;;;12.63;2.00;;;17.30;55.80;;;;;;5088072;28;20548;-79
2023/04/13 08:26:33;;;;;;;3.07;1.70;;;18.10;53.90;;;;;;5083092;28;20464;-79
2023/04/13 08:29:02;;;;;;;3.07;1.73;;;18.70;52.50;;;;;;5091916;28;20468;-78
2023/04/13 08:31:31;;;;;;;3.33;1.40;;;19.20;51.30;;;;;;5097076;28;20444;-79
2023/04/13 08:34:00;;;;;;;4.60;1.63;;;19.70;50.70;;;;;;5093417;28;20472;-77
2023/04/13 08:36:28;;;;;;;1.63;1.53;;;20.00;50.10;;;;;;5092496;28;20448;-77
2023/04/13 08:38:56;;;;;;;2.30;1.60;;;20.30;49.60;;;;;;5091127;28;20487;-78
2023/04/13 08:41:25;;;;;;;4.30;1.53;;;20.50;49.00;;;;;;5090223;28;20433;-77
2023/04/13 08:43:53;;;;;;;2.30;1.50;;;20.70;49.00;;;;;;5089550;28;20520;-77
2023/04/13 08:46:22;;;;;;;7.07;1.30;;;20.90;48.80;;;;;;5090818;28;20445;-78
2023/04/13 08:48:50;;;;;;;3.47;1.53;;;21.10;48.80;;;;;;5091974;28;21003;-78
2023/04/13 08:51:23;;;;;;;4.50;1.23;;;21.30;48.50;;;;;;5093259;28;20468;-78
2023/04/13 08:53:53;;;;;;;2.20;1.40;;;21.40;48.20;;;;;;5085404;28;20455;-78
2023/04/13 08:56:21;;;;;;;7.23;1.40;;;21.50;48.00;;;;;;5087591;28;20519;-79
2023/04/13 08:59:05;;;;;;;3.60;1.83;;;21.60;47.70;;;;;;5092738;28;20472;-77
2023/04/13 09:01:34;;;;;;;2.30;1.60;;;21.60;47.90;;;;;;5079144;28;20444;-79
2023/04/13 09:04:03;;;;;;;5.83;2.03;;;21.70;48.10;;;;;;5091438;28;20541;-79
2023/04/13 09:06:34;;;;;;;3.93;2.10;;;21.80;47.70;;;;;;5098350;28;20453;-78
2023/04/13 09:09:04;;;;;;;2.57;2.20;;;21.80;47.70;;;;;;5088454;28;20476;-77
2023/04/13 09:11:50;;;;;;;3.20;1.93;;;22.00;47.60;;;;;;5082714;28;20520;-77
2023/04/13 09:14:19;;;;;;;5.37;2.10;;;22.10;47.40;;;;;;5084224;28;20547;-77
2023/04/13 09:16:47;;;;;;;2.87;1.77;;;22.20;47.20;;;;;;5087461;28;20449;-76
2023/04/13 09:19:15;;;;;;;4.57;1.87;;;22.30;47.30;;;;;;5081428;28;20453;-78
2023/04/13 09:21:45;;;;;;;2.20;1.50;;;22.40;47.00;;;;;;5091062;28;20540;-78
2023/04/13 09:24:13;;;;;;;3.77;1.90;;;22.40;46.70;;;;;;5090793;28;20448;-77
2023/04/13 09:26:42;;;;;;;2.17;1.70;;;22.20;47.00;;;;;;5088741;28;20544;-77
2023/04/13 09:29:12;;;;;;;5.40;2.10;;;22.10;46.90;;;;;;5095637;28;20476;-77
2023/04/13 09:31:42;;;;;;;5.90;1.60;;;22.10;47.20;;;;;;5091203;28;20540;-77
2023/04/13 09:34:12;;;;;;;1.90;1.80;;;22.10;47.30;;;;;;5082699;28;20484;-78
2023/04/13 09:36:40;;;;;;;2.93;1.80;;;22.10;47.50;;;;;;5091110;28;20449;-77
2023/04/13 09:39:26;;;;;;;3.57;1.93;;;22.10;47.30;;;;;;5092735;28;20547;-78
2023/04/13 09:41:56;;;;;;;3.53;2.13;;;22.10;47.20;;;;;;5086323;28;20460;-77
2023/04/13 09:44:26;;;;;;;2.10;1.70;;;22.00;47.40;;;;;;5090611;28;20441;-77
2023/04/13 09:46:58;;;;;;;2.07;1.87;;;22.10;47.50;;;;;;5099430;28;20441;-77
2023/04/13 09:49:26;;;;;;;5.40;2.33;;;22.00;47.70;;;;;;5079265;28;20480;-79
2023/04/13 09:51:54;;;;;;;4.40;2.27;;;22.10;47.40;;;;;;5092001;28;20460;-77
2023/04/13 09:54:22;;;;;;;6.83;2.10;;;22.10;47.60;;;;;;5086572;28;20552;-79
2023/04/13 09:56:53;;;;;;;4.20;2.40;;;22.10;47.70;;;;;;5088644;28;20466;-79
2023/04/13 09:59:22;;;;;;;8.63;2.63;;;22.10;47.90;;;;;;5083148;28;20526;-78
2023/04/13 10:01:50;;;;;;;13.33;3.03;;;22.10;48.30;;;;;;5086003;28;20525;-78
2023/04/13 10:04:18;;;;;;;11.70;3.40;;;22.10;48.90;;;;;;5092250;28;20531;-79
2023/04/13 10:06:46;;;;;;;12.63;3.90;;;22.20;49.80;;;;;;5092232;28;20445;-80
2023/04/13 10:09:14;;;;;;;8.70;3.10;;;22.10;49.50;;;;;;5090864;28;20484;-80
2023/04/13 10:11:44;;;;;;;18.20;3.83;;;21.90;49.10;;;;;;5091667;28;20448;-80
2023/04/13 10:14:16;;;;;;;8.83;3.43;;;21.70;49.10;;;;;;5093975;28;20469;-80
2023/04/13 10:17:16;;;;;;;11.57;3.60;;;21.60;49.30;;;;;;5095007;28;20539;-81
2023/04/13 10:19:45;;;;;;;6.37;3.30;;;21.40;49.30;;;;;;5091133;28;20464;-80
2023/04/13 10:22:13;;;;;;;9.93;3.70;;;21.50;50.00;;;;;;5094951;28;20456;-80
2023/04/13 10:24:41;;;;;;;8.10;3.47;;;21.70;49.80;;;;;;5089992;28;20449;-81
2023/04/13 10:27:14;;;;;;;4.90;3.23;;;21.90;50.10;;;;;;5089807;28;20724;-80
2023/04/13 10:29:43;;;;;;;7.67;3.60;;;22.20;50.00;;;;;;5096454;28;20468;-81
2023/04/13 10:32:20;;;;;;;7.47;3.10;;;22.50;50.10;;;;;;5094058;28;20489;-80
2023/04/13 10:34:48;;;;;;;4.40;3.13;;;22.80;49.80;;;;;;5101922;28;20477;-80
2023/04/13 10:37:18;;;;;;;8.97;3.37;;;23.20;49.70;;;;;;5095074;28;20440;-79
2023/04/13 10:39:46;;;;;;;7.07;2.77;;;23.60;49.40;;;;;;5093934;28;20476;-81
2023/04/13 10:42:14;;;;;;;4.13;2.80;;;23.60;48.10;;;;;;5091297;28;20550;-80
2023/04/13 10:44:47;;;;;;;6.00;3.20;;;23.40;48.00;;;;;;5093127;28;20459;-80
2023/04/13 10:47:15;;;;;;;5.03;3.17;;;23.40;48.20;;;;;;5093529;28;20478;-80
2023/04/13 10:49:44;;;;;;;5.17;3.27;;;23.20;47.90;;;;;;5089022;28;20472;-80
2023/04/13 10:52:13;;;;;;;8.40;2.80;;;23.20;47.90;;;;;;5102354;28;20523;-80
2023/04/13 10:54:41;;;;;;;2.70;2.50;;;23.10;47.80;;;;;;5090607;28;20473;-79
2023/04/13 10:57:10;;;;;;;6.50;2.40;;;23.00;47.90;;;;;;5082744;28;20458;-80
2023/04/13 10:59:41;;;;;;;4.20;2.60;;;23.00;47.60;;;;;;5081466;28;20479;-78
2023/04/13 11:02:26;;;;;;;3.47;2.43;;;22.90;47.10;;;;;;5087949;28;20452;-79
2023/04/13 11:04:54;;;;;;;5.50;2.43;;;22.80;47.00;;;;;;5082619;28;20484;-79
2023/04/13 11:07:24;;;;;;;2.33;2.23;;;22.80;47.20;;;;;;5084252;28;20444;-78
2023/04/13 11:09:56;;;;;;;4.20;2.10;;;22.90;46.80;;;;;;5089927;28;20522;-79
2023/04/13 11:12:31;;;;;;;5.07;2.50;;;22.70;46.10;;;;;;5090420;28;20444;-79
2023/04/13 11:14:59;;;;;;;2.80;2.20;;;22.60;46.20;;;;;;5090948;28;20593;-78
2023/04/13 11:17:29;;;;;;;5.07;2.27;;;22.40;45.90;;;;;;5088363;28;20538;-78
2023/04/13 11:19:58;;;;;;;2.20;1.67;;;22.20;45.90;;;;;;5082964;28;20473;-79
2023/04/13 11:22:27;;;;;;;1.97;1.87;;;22.00;46.10;;;;;;5085528;28;20533;-79
2023/04/13 11:25:07;;;;;;;2.33;2.13;;;21.90;46.30;;;;;;5090828;28;20455;-79
2023/04/13 11:27:36;;;;;;;4.50;1.83;;;21.80;46.40;;;;;;5087923;28;20461;-79
2023/04/13 11:30:05;;;;;;;2.07;1.83;;;21.60;46.40;;;;;;5097406;28;20473;-79
2023/04/13 11:32:41;;;;;;;2.50;2.23;;;21.50;46.70;;;;;;5101303;28;20452;-80
2023/04/13 11:35:12;;;;;;;1.90;1.80;;;21.50;46.70;;;;;;5088888;28;20471;-80
2023/04/13 11:37:41;;;;;;;4.50;2.63;;;21.40;46.90;;;;;;5090387;28;20554;-80
2023/04/13 11:40:11;;;;;;;8.00;2.37;;;21.30;47.20;;;;;;5089254;28;20469;-81
2023/04/13 11:42:39;;;;;;;5.07;2.63;;;21.30;47.20;;;;;;5094623;28;20452;-80
2023/04/13 11:45:09;;;;;;;2.80;2.60;;;21.30;47.30;;;;;;5092316;28;20421;-80
2023/04/13 11:47:38;;;;;;;2.97;2.20;;;21.30;47.40;;;;;;5085371;28;20464;-80
2023/04/13 11:50:08;;;;;;;3.47;2.40;;;21.20;47.40;;;;;;5083903;28;20473;-80
2023/04/13 11:52:36;;;;;;;2.33;2.13;;;21.10;47.50;;;;;;5084411;28;20449;-79
2023/04/13 11:55:05;;;;;;;2.63;2.53;;;21.10;47.60;;;;;;5089202;28;20473;-80
2023/04/13 11:57:48;;;;;;;5.63;2.30;;;22.60;51.40;;;;;;5093508;28;20484;-80
2023/04/13 12:00:18;;;;;;;2.37;2.17;;;25.80;47.00;;;;;;5096964;28;20512;-81
2023/04/13 12:02:50;;;;;;;1.93;1.83;;;28.40;43.00;;;;;;5091093;28;20423;-80
2023/04/13 12:05:30;;;;;;;3.00;2.20;;;30.70;39.40;;;;;;5096372;28;20448;-80
2023/04/13 12:08:01;;;;;;;1.47;1.47;;;32.70;36.60;;;;;;5091785;28;20460;-80
2023/04/13 12:10:33;;;;;;;1.77;1.67;;;33.90;33.90;;;;;;5089739;28;20475;-79
2023/04/13 12:13:08;;;;;;;1.60;1.50;;;34.40;33.40;;;;;;5087247;28;20449;-80
2023/04/13 12:15:55;;;;;;;1.43;1.20;;;35.50;32.00;;;;;;5100094;28;20548;-80
2023/04/13 12:18:27;;;;;;;1.60;1.50;;;36.70;30.70;;;;;;5093387;28;20452;-81
2023/04/13 12:21:03;;;;;;;1.80;1.70;;;37.40;29.90;;;;;;5096008;28;20964;-79
2023/04/13 12:23:33;;;;;;;1.30;1.20;;;38.10;29.20;;;;;;5091048;28;20533;-80
2023/04/13 12:26:04;;;;;;;1.23;1.13;;;38.70;28.80;;;;;;5092306;28;20475;-79
2023/04/13 12:28:54;;;;;;;1.10;1.10;;;37.40;27.10;;;;;;5092009;28;20514;-79
2023/04/13 12:31:22;;;;;;;1.43;1.40;;;35.60;29.00;;;;;;5092479;28;20456;-78
2023/04/13 12:33:52;;;;;;;1.53;1.43;;;34.20;29.60;;;;;;5095925;28;20478;-80
2023/04/13 12:36:20;;;;;;;1.60;1.50;;;32.50;31.60;;;;;;5094492;28;20459;-79
2023/04/13 12:38:48;;;;;;;1.57;1.47;;;31.30;33.20;;;;;;5093165;28;20469;-79
2023/04/13 12:41:16;;;;;;;1.60;1.50;;;31.40;36.10;;;;;;5093999;28;20456;-79
2023/04/13 12:43:44;;;;;;;1.40;1.30;;;30.70;34.80;;;;;;5090242;28;20476;-79
2023/04/13 12:46:13;;;;;;;1.37;1.37;;;30.80;35.70;;;;;;5094780;28;20927;-79
2023/04/13 12:48:41;;;;;;;1.37;1.27;;;30.10;35.70;;;;;;5088674;28;20507;-77
2023/04/13 12:51:10;;;;;;;1.83;1.30;;;29.50;37.10;;;;;;5095802;28;20428;-78
2023/04/13 12:53:39;;;;;;;1.43;1.33;;;30.40;36.60;;;;;;5089795;28;20452;-79
2023/04/13 12:56:07;;;;;;;1.80;1.70;;;29.70;36.10;;;;;;5084973;28;20464;-78
2023/04/13 12:58:35;;;;;;;1.67;1.57;;;29.10;37.00;;;;;;5098331;28;20468;-81
2023/04/13 13:01:04;;;;;;;2.07;1.57;;;28.30;37.90;;;;;;5091591;28;20463;-78